Time;durP1;ratioP1;P1;durP2;ratioP2;P2;SDS_P1;SDS_P2;PMS_P1;PMS_P2;Temp;Humidity;BMP_temperature;BMP_pressure;BME280_temperature;BME280_humidity;BME280_pressure;Samples;Min_cycle;Max_cycle;Signal;HPM_P1;HPM_P2
2022/01/29 00:01:55;;;;;;;9.32;5.75;;;19.90;43.10;;;;;;5070805;28;20033;-67
2022/01/29 00:04:20;;;;;;;8.75;5.85;;;19.90;43.00;;;;;;5064532;28;20037;-67
2022/01/29 00:06:46;;;;;;;7.90;5.30;;;19.90;43.00;;;;;;5045140;28;20040;-67
2022/01/29 00:09:14;;;;;;;8.65;5.95;;;19.90;42.90;;;;;;5072151;28;20107;-67
2022/01/29 00:11:42;;;;;;;11.18;5.80;;;19.90;42.90;;;;;;5065825;28;20222;-67
2022/01/29 00:14:07;;;;;;;8.00;5.20;;;19.90;43.00;;;;;;5061319;28;20044;-67
2022/01/29 00:16:33;;;;;;;9.10;5.50;;;19.80;42.80;;;;;;5053451;28;20029;-67
2022/01/29 00:18:59;;;;;;;10.00;5.65;;;19.80;42.80;;;;;;5057722;28;20047;-67
2022/01/29 00:21:24;;;;;;;7.70;5.50;;;19.80;42.80;;;;;;5039960;28;20494;-67
2022/01/29 00:23:50;;;;;;;6.53;5.20;;;19.80;42.80;;;;;;5053769;28;20032;-67
2022/01/29 00:26:20;;;;;;;8.98;5.53;;;19.80;42.80;;;;;;5071451;28;20044;-67
2022/01/29 00:28:45;;;;;;;8.48;5.75;;;19.80;42.70;;;;;;5067606;28;20400;-67
2022/01/29 00:31:11;;;;;;;7.57;5.07;;;19.70;42.70;;;;;;5044553;28;20032;-67
2022/01/29 00:33:38;;;;;;;9.18;5.55;;;19.80;42.70;;;;;;5071561;28;20090;-67
2022/01/29 00:36:04;;;;;;;8.35;5.78;;;19.80;42.70;;;;;;5068058;28;20484;-67
2022/01/29 00:38:30;;;;;;;7.75;5.25;;;19.70;42.60;;;;;;5058280;28;20036;-67
2022/01/29 00:40:55;;;;;;;10.07;5.65;;;19.70;43.60;;;;;;5069019;28;20028;-67
2022/01/29 00:43:21;;;;;;;9.85;5.22;;;19.70;42.60;;;;;;5055084;28;20060;-67
2022/01/29 00:45:47;;;;;;;7.70;5.10;;;19.70;42.50;;;;;;5061517;28;20021;-66
2022/01/29 00:48:12;;;;;;;9.05;5.65;;;19.70;42.60;;;;;;5040049;28;20037;-67
2022/01/29 00:50:38;;;;;;;7.32;5.10;;;19.70;42.60;;;;;;5064066;28;20029;-67
2022/01/29 00:53:04;;;;;;;7.32;5.10;;;19.60;42.50;;;;;;5057550;28;20052;-67
2022/01/29 00:55:29;;;;;;;8.45;5.25;;;19.60;42.50;;;;;;5070428;28;20029;-67
2022/01/29 00:57:55;;;;;;;8.13;5.07;;;19.60;42.50;;;;;;5072235;28;20025;-67
2022/01/29 01:00:21;;;;;;;9.02;5.25;;;19.60;42.50;;;;;;5071354;28;20166;-67
2022/01/29 01:02:46;;;;;;;7.57;5.28;;;19.60;42.50;;;;;;5058940;28;20035;-67
2022/01/29 01:05:12;;;;;;;7.53;5.20;;;19.60;42.40;;;;;;5061180;28;20029;-67
2022/01/29 01:07:38;;;;;;;7.97;4.93;;;19.50;42.40;;;;;;5062437;28;20488;-67
2022/01/29 01:10:09;;;;;;;7.65;5.00;;;19.50;42.40;;;;;;5057609;28;20025;-67
2022/01/29 01:12:35;;;;;;;7.03;5.18;;;19.50;42.40;;;;;;5064823;28;20029;-67
2022/01/29 01:15:02;;;;;;;8.02;5.15;;;19.50;42.40;;;;;;5056342;28;20163;-67
2022/01/29 01:17:28;;;;;;;7.78;5.15;;;19.50;42.40;;;;;;5056500;28;20029;-67
2022/01/29 01:19:53;;;;;;;8.13;5.03;;;19.50;42.40;;;;;;5066899;28;20025;-67
2022/01/29 01:22:19;;;;;;;7.65;4.80;;;19.50;42.30;;;;;;5066331;28;20455;-67
2022/01/29 01:24:45;;;;;;;8.38;5.38;;;19.50;42.40;;;;;;5066446;28;20029;-67
2022/01/29 01:27:10;;;;;;;7.13;5.03;;;19.50;42.40;;;;;;5048799;28;20037;-67
2022/01/29 01:29:36;;;;;;;7.43;5.03;;;19.40;42.30;;;;;;5071133;28;20082;-67
2022/01/29 01:32:02;;;;;;;7.20;5.00;;;19.40;43.30;;;;;;5065325;28;20033;-67
2022/01/29 01:34:32;;;;;;;7.30;4.70;;;19.40;42.30;;;;;;5051877;28;20047;-67
2022/01/29 01:37:03;;;;;;;6.75;4.85;;;19.40;42.40;;;;;;5061123;28;20032;-67
2022/01/29 01:39:33;;;;;;;8.68;5.43;;;19.40;43.30;;;;;;5063808;28;20029;-67
2022/01/29 01:42:08;;;;;;;7.25;5.13;;;19.40;42.40;;;;;;5049059;28;20384;-66
2022/01/29 01:44:46;;;;;;;8.13;4.80;;;19.30;43.30;;;;;;5068892;28;20037;-66
2022/01/29 01:47:13;;;;;;;5.90;4.75;;;19.40;42.40;;;;;;5063202;28;20090;-67
2022/01/29 01:49:39;;;;;;;7.85;4.85;;;19.30;42.40;;;;;;5068043;28;20029;-67
2022/01/29 01:52:10;;;;;;;7.25;4.63;;;19.30;42.40;;;;;;5058335;28;20044;-67
2022/01/29 01:54:37;;;;;;;7.65;4.88;;;19.30;42.40;;;;;;5062450;28;20032;-67
2022/01/29 01:57:03;;;;;;;7.35;4.60;;;19.30;42.40;;;;;;5062892;28;20033;-66
2022/01/29 01:59:29;;;;;;;8.82;4.78;;;19.30;42.40;;;;;;5051754;28;20078;-67
2022/01/29 02:01:55;;;;;;;7.55;5.10;;;19.20;42.30;;;;;;5067886;28;20487;-67
2022/01/29 02:04:21;;;;;;;6.35;4.40;;;19.30;42.40;;;;;;5060187;28;20029;-67
2022/01/29 02:06:49;;;;;;;6.18;4.55;;;19.20;42.40;;;;;;5060062;28;20025;-67
2022/01/29 02:09:17;;;;;;;7.95;4.88;;;19.20;42.40;;;;;;5057853;28;20045;-67
2022/01/29 02:11:54;;;;;;;7.95;5.18;;;19.20;42.40;;;;;;5076154;28;20034;-67
2022/01/29 02:14:23;;;;;;;7.90;5.28;;;19.20;42.40;;;;;;5068894;28;20423;-67
2022/01/29 02:16:49;;;;;;;7.85;4.85;;;19.20;43.40;;;;;;5056376;28;20449;-67
2022/01/29 02:19:15;;;;;;;6.72;4.65;;;19.20;43.40;;;;;;5063661;28;20047;-67
2022/01/29 02:21:41;;;;;;;6.20;4.25;;;19.20;42.50;;;;;;5074925;28;20082;-67
2022/01/29 02:24:06;;;;;;;6.05;4.20;;;19.20;42.50;;;;;;5069453;28;20033;-67
2022/01/29 02:26:32;;;;;;;6.10;4.82;;;19.10;42.50;;;;;;5075282;28;20468;-67
2022/01/29 02:28:58;;;;;;;6.13;4.20;;;19.10;42.40;;;;;;5074684;28;20479;-67
2022/01/29 02:31:24;;;;;;;7.18;5.15;;;19.10;42.50;;;;;;5074261;28;20033;-67
2022/01/29 02:33:49;;;;;;;7.97;4.90;;;19.10;42.40;;;;;;5074964;28;20090;-67
2022/01/29 02:36:15;;;;;;;8.20;4.70;;;19.10;42.50;;;;;;5071938;28;20623;-67
2022/01/29 02:38:40;;;;;;;7.15;4.85;;;19.10;42.50;;;;;;5068585;28;20029;-67
2022/01/29 02:41:07;;;;;;;6.72;4.80;;;19.00;42.40;;;;;;5043114;28;20090;-67
2022/01/29 02:43:41;;;;;;;6.63;4.53;;;19.00;42.50;;;;;;5059878;28;20028;-67
2022/01/29 02:46:20;;;;;;;7.07;4.72;;;19.00;42.50;;;;;;5072942;28;20357;-67
2022/01/29 02:48:48;;;;;;;6.80;4.43;;;19.00;42.50;;;;;;5061726;28;20041;-67
2022/01/29 02:51:14;;;;;;;6.82;4.50;;;19.00;42.50;;;;;;5058319;28;20463;-67
2022/01/29 02:53:40;;;;;;;7.93;4.40;;;19.00;42.50;;;;;;5060645;28;20066;-67
2022/01/29 02:56:05;;;;;;;6.88;4.65;;;19.00;42.50;;;;;;5070659;28;20032;-67
2022/01/29 02:58:31;;;;;;;7.70;4.65;;;19.00;42.50;;;;;;5074066;28;20032;-67
2022/01/29 03:00:57;;;;;;;6.45;4.15;;;18.90;42.50;;;;;;5071034;28;20021;-67
2022/01/29 03:03:24;;;;;;;5.85;4.63;;;19.00;42.60;;;;;;5058963;28;20032;-66
2022/01/29 03:05:50;;;;;;;7.18;5.15;;;18.90;42.50;;;;;;5058381;28;20026;-67
2022/01/29 03:08:16;;;;;;;7.38;4.63;;;18.90;42.50;;;;;;5064077;28;20029;-67
2022/01/29 03:10:42;;;;;;;6.80;4.35;;;18.90;43.10;;;;;;5070254;28;20028;-66
2022/01/29 03:13:07;;;;;;;6.78;4.40;;;18.90;42.50;;;;;;5074274;28;20074;-67
2022/01/29 03:15:33;;;;;;;6.10;4.50;;;18.90;42.60;;;;;;5068910;28;20060;-67
2022/01/29 03:17:58;;;;;;;6.63;4.50;;;18.90;42.50;;;;;;5037080;28;20036;-67
2022/01/29 03:20:24;;;;;;;5.80;4.20;;;18.90;42.60;;;;;;5058283;28;20039;-67
2022/01/29 03:22:50;;;;;;;6.50;4.13;;;18.80;42.60;;;;;;5056591;28;20032;-67
2022/01/29 03:25:16;;;;;;;7.70;4.55;;;18.80;42.60;;;;;;5073814;28;20036;-67
2022/01/29 03:27:42;;;;;;;5.97;4.18;;;18.80;42.60;;;;;;5065391;28;20373;-67
2022/01/29 03:30:09;;;;;;;6.35;4.35;;;18.80;42.60;;;;;;5060571;28;20494;-67
2022/01/29 03:32:35;;;;;;;7.53;4.65;;;18.80;42.60;;;;;;5063086;28;20036;-67
2022/01/29 03:35:00;;;;;;;5.95;4.00;;;18.80;42.60;;;;;;5066660;28;20507;-67
2022/01/29 03:37:26;;;;;;;5.88;3.92;;;18.80;42.70;;;;;;5059628;28;20052;-67
2022/01/29 03:39:57;;;;;;;6.70;4.78;;;18.80;43.60;;;;;;5049676;28;20094;-67
2022/01/29 03:42:23;;;;;;;4.90;3.60;;;18.80;42.60;;;;;;5063719;28;20040;-67
2022/01/29 03:44:49;;;;;;;6.43;4.45;;;18.70;42.60;;;;;;5065875;28;20120;-67
2022/01/29 03:47:14;;;;;;;6.65;4.07;;;18.80;42.70;;;;;;5054755;28;20033;-67
2022/01/29 03:49:40;;;;;;;5.55;3.67;;;18.70;42.70;;;;;;5064530;28;20033;-66
2022/01/29 03:52:06;;;;;;;6.72;4.20;;;18.70;42.70;;;;;;5064397;28;20043;-66
2022/01/29 03:54:32;;;;;;;5.65;4.20;;;18.70;42.70;;;;;;5060612;28;20021;-66
2022/01/29 03:56:57;;;;;;;5.80;4.22;;;18.70;42.80;;;;;;5066220;28;20354;-66
2022/01/29 03:59:23;;;;;;;5.55;3.80;;;18.70;42.70;;;;;;5072027;28;20605;-66
2022/01/29 04:01:49;;;;;;;5.80;4.45;;;18.70;42.70;;;;;;5062967;28;20033;-66
2022/01/29 04:04:14;;;;;;;6.00;3.95;;;18.70;42.80;;;;;;5058318;28;20429;-66
2022/01/29 04:06:40;;;;;;;5.72;4.20;;;18.60;42.70;;;;;;5057587;28;20413;-66
2022/01/29 04:09:10;;;;;;;5.72;4.22;;;18.60;42.70;;;;;;5067495;28;20086;-66
2022/01/29 04:11:37;;;;;;;6.07;4.15;;;18.60;42.80;;;;;;5068801;28;20025;-66
2022/01/29 04:14:03;;;;;;;4.80;3.70;;;18.60;42.80;;;;;;5067742;28;20018;-66
2022/01/29 04:16:29;;;;;;;6.15;4.00;;;18.60;42.70;;;;;;5054267;28;20040;-66
2022/01/29 04:18:54;;;;;;;6.70;4.25;;;18.60;42.80;;;;;;5063345;28;20024;-66
2022/01/29 04:21:20;;;;;;;6.25;3.88;;;18.60;42.80;;;;;;5071405;28;20119;-66
2022/01/29 04:23:46;;;;;;;5.70;3.72;;;18.60;42.80;;;;;;5070748;28;20503;-66
2022/01/29 04:26:11;;;;;;;5.85;3.78;;;18.60;42.80;;;;;;5074132;28;20029;-66
2022/01/29 04:28:41;;;;;;;5.90;4.20;;;18.60;42.80;;;;;;5068186;28;20040;-66
2022/01/29 04:31:18;;;;;;;5.28;3.83;;;18.60;42.80;;;;;;5068218;28;20125;-66
2022/01/29 04:33:45;;;;;;;5.00;3.92;;;18.60;42.90;;;;;;5059644;28;20107;-66
2022/01/29 04:36:11;;;;;;;5.53;3.78;;;18.50;42.80;;;;;;5060659;28;20017;-66
2022/01/29 04:38:37;;;;;;;5.20;3.55;;;18.50;42.80;;;;;;5058322;28;20013;-66
2022/01/29 04:41:05;;;;;;;5.25;3.85;;;18.50;42.80;;;;;;5073675;28;20036;-66
2022/01/29 04:43:35;;;;;;;5.40;3.95;;;18.50;42.80;;;;;;5071557;28;20142;-66
2022/01/29 04:46:02;;;;;;;4.43;3.75;;;18.50;42.80;;;;;;5058882;28;20120;-66
2022/01/29 04:48:28;;;;;;;5.07;3.70;;;18.50;42.90;;;;;;5038784;28;20021;-67
2022/01/29 04:50:53;;;;;;;5.47;3.72;;;18.50;42.90;;;;;;5059077;28;20041;-66
2022/01/29 04:53:19;;;;;;;4.60;3.65;;;18.50;42.90;;;;;;5055389;28;20057;-66
2022/01/29 04:55:45;;;;;;;5.90;3.78;;;18.50;43.80;;;;;;5052788;28;20035;-66
2022/01/29 04:58:11;;;;;;;5.70;4.22;;;18.50;42.90;;;;;;5072005;28;20024;-66
2022/01/29 05:00:37;;;;;;;5.50;3.63;;;18.50;42.90;;;;;;5071650;28;20035;-66
2022/01/29 05:03:10;;;;;;;4.90;3.63;;;18.50;43.00;;;;;;5053431;28;20029;-66
2022/01/29 05:05:37;;;;;;;6.10;4.30;;;18.50;43.00;;;;;;5068060;28;20103;-66
2022/01/29 05:08:03;;;;;;;5.40;3.67;;;18.40;42.90;;;;;;5072610;28;20060;-66
2022/01/29 05:10:29;;;;;;;6.05;4.07;;;18.40;42.90;;;;;;5065091;28;20530;-66
2022/01/29 05:13:00;;;;;;;5.68;3.80;;;18.40;43.00;;;;;;5071499;28;20480;-66
2022/01/29 05:15:37;;;;;;;4.97;3.72;;;18.40;43.00;;;;;;5050699;28;20032;-66
2022/01/29 05:29:03;;;;;;;5.95;3.80;;;18.30;43.10;;;;;;5072190;28;20040;-66
2022/01/29 05:31:29;;;;;;;5.57;3.80;;;18.30;43.10;;;;;;5071387;28;20056;-66
2022/01/29 05:33:54;;;;;;;5.00;3.33;;;18.30;43.20;;;;;;5060256;28;20143;-66
2022/01/29 05:36:20;;;;;;;5.03;3.72;;;18.30;43.10;;;;;;5058925;28;20017;-66
2022/01/29 05:38:46;;;;;;;4.88;3.85;;;18.30;43.20;;;;;;5068415;28;20029;-66
2022/01/29 05:41:11;;;;;;;5.45;3.80;;;18.30;43.20;;;;;;5071997;28;20373;-66
2022/01/29 05:43:37;;;;;;;4.80;3.75;;;18.30;43.10;;;;;;5072452;28;20120;-66
2022/01/29 05:46:03;;;;;;;5.18;3.60;;;18.30;43.10;;;;;;5070484;28;20511;-66
2022/01/29 05:48:29;;;;;;;5.25;3.63;;;18.30;43.30;;;;;;5072348;28;20479;-67
2022/01/29 05:50:55;;;;;;;5.22;3.75;;;18.30;43.50;;;;;;5069150;28;20024;-66
2022/01/29 05:53:21;;;;;;;5.05;3.58;;;18.30;43.30;;;;;;5073192;28;20500;-66
2022/01/29 05:55:46;;;;;;;5.65;3.85;;;18.30;43.30;;;;;;5072180;28;20058;-66
2022/01/29 05:58:12;;;;;;;5.07;3.58;;;18.30;43.30;;;;;;5075232;28;20357;-66
2022/01/29 06:00:38;;;;;;;4.80;3.75;;;18.30;43.30;;;;;;5075213;28;20032;-66
2022/01/29 06:03:06;;;;;;;5.18;3.70;;;18.30;43.30;;;;;;5056419;28;20025;-66
2022/01/29 06:05:32;;;;;;;5.30;3.65;;;18.30;43.30;;;;;;5061728;28;20053;-66
2022/01/29 06:07:58;;;;;;;6.13;3.72;;;18.20;43.30;;;;;;5056558;28;20385;-66
2022/01/29 06:10:24;;;;;;;5.22;3.65;;;18.20;43.30;;;;;;5065339;28;20028;-66
2022/01/29 06:13:05;;;;;;;5.93;3.80;;;18.20;43.30;;;;;;5075762;28;20021;-66
2022/01/29 06:15:34;;;;;;;5.63;4.13;;;18.20;43.30;;;;;;5072171;28;20473;-66
2022/01/29 06:18:01;;;;;;;5.63;3.67;;;18.20;43.60;;;;;;5068251;28;20086;-66
2022/01/29 06:20:27;;;;;;;5.40;3.92;;;18.20;43.40;;;;;;5069564;28;20040;-66
2022/01/29 06:22:52;;;;;;;4.72;3.67;;;18.20;43.40;;;;;;5076194;28;20024;-66
2022/01/29 06:25:18;;;;;;;6.47;3.92;;;18.20;43.40;;;;;;5056114;28;20026;-66
2022/01/29 06:27:44;;;;;;;6.00;4.20;;;18.20;43.40;;;;;;5066322;28;20086;-66
2022/01/29 06:30:10;;;;;;;5.68;3.80;;;18.20;43.40;;;;;;5071231;28;20155;-66
2022/01/29 06:32:36;;;;;;;6.03;4.28;;;18.20;43.50;;;;;;5055794;28;20025;-66
2022/01/29 06:35:02;;;;;;;7.40;4.53;;;18.20;43.50;;;;;;5059010;28;20031;-66
2022/01/29 06:37:27;;;;;;;6.20;4.18;;;18.20;43.50;;;;;;5072176;28;20501;-66
2022/01/29 06:39:53;;;;;;;6.00;4.15;;;18.20;43.50;;;;;;5071395;28;20033;-66
2022/01/29 06:42:19;;;;;;;5.18;3.90;;;18.20;43.50;;;;;;5063212;28;20076;-66
2022/01/29 06:44:44;;;;;;;6.13;4.25;;;18.20;43.50;;;;;;5068730;28;20036;-66
2022/01/29 06:47:10;;;;;;;5.95;4.32;;;18.10;43.50;;;;;;5067525;28;20132;-66
2022/01/29 06:49:35;;;;;;;5.47;3.90;;;18.10;43.60;;;;;;5068735;28;20037;-66
2022/01/29 06:52:01;;;;;;;6.18;3.97;;;18.10;43.50;;;;;;5046496;28;20060;-66
2022/01/29 06:54:27;;;;;;;6.40;3.92;;;18.10;43.60;;;;;;5069679;28;20048;-66
2022/01/29 06:56:52;;;;;;;5.07;4.00;;;18.10;43.60;;;;;;5071209;28;20029;-66
2022/01/29 06:59:18;;;;;;;6.10;4.10;;;18.10;43.60;;;;;;5072125;28;20025;-66
2022/01/29 07:01:43;;;;;;;5.93;4.47;;;18.10;43.70;;;;;;5061102;28;20052;-66
2022/01/29 07:04:09;;;;;;;7.07;4.38;;;18.10;43.60;;;;;;5071612;28;20116;-66
2022/01/29 07:06:36;;;;;;;7.65;4.70;;;18.10;43.60;;;;;;5056691;28;20039;-66
2022/01/29 07:09:03;;;;;;;6.00;4.60;;;18.10;43.70;;;;;;5060049;28;20036;-66
2022/01/29 07:11:28;;;;;;;5.90;4.53;;;18.10;43.70;;;;;;5038498;28;20060;-66
2022/01/29 07:14:02;;;;;;;7.95;4.45;;;18.10;43.70;;;;;;5059706;28;20476;-66
2022/01/29 07:16:29;;;;;;;6.32;4.80;;;18.10;43.70;;;;;;5063405;28;20500;-66
2022/01/29 07:18:55;;;;;;;7.00;4.90;;;18.10;43.80;;;;;;5055220;28;20470;-66
2022/01/29 07:21:20;;;;;;;7.10;4.60;;;18.10;43.70;;;;;;5071147;28;20831;-66
2022/01/29 07:23:46;;;;;;;6.05;4.38;;;18.10;43.80;;;;;;5067551;28;20108;-66
2022/01/29 07:26:11;;;;;;;6.22;4.22;;;18.10;43.80;;;;;;5046252;28;20040;-66
2022/01/29 07:28:39;;;;;;;6.35;4.03;;;18.10;43.80;;;;;;5070243;28;20032;-66
2022/01/29 07:31:04;;;;;;;6.97;4.68;;;18.10;43.80;;;;;;5038308;28;20120;-66
2022/01/29 07:33:30;;;;;;;7.03;4.65;;;18.00;43.80;;;;;;5073914;28;20100;-66
2022/01/29 07:35:56;;;;;;;6.38;4.63;;;18.00;43.80;;;;;;5071160;28;20037;-66
2022/01/29 07:38:22;;;;;;;6.95;4.82;;;18.00;43.80;;;;;;5046525;28;20033;-66
2022/01/29 07:40:48;;;;;;;6.55;4.80;;;18.00;43.90;;;;;;5063620;28;20028;-66
2022/01/29 07:43:13;;;;;;;6.15;4.68;;;18.00;43.90;;;;;;5068891;28;20029;-66
2022/01/29 07:45:39;;;;;;;7.10;4.60;;;18.00;43.90;;;;;;5062542;28;20051;-66
2022/01/29 07:48:05;;;;;;;6.68;4.70;;;18.00;43.90;;;;;;5058669;28;20485;-66
2022/01/29 07:50:31;;;;;;;6.65;4.88;;;18.00;43.90;;;;;;5061168;28;20074;-66
2022/01/29 07:52:59;;;;;;;6.43;4.88;;;18.00;44.00;;;;;;5047317;28;20044;-66
2022/01/29 07:55:25;;;;;;;15.35;10.38;;;18.00;43.90;;;;;;5071264;28;20349;-65
2022/01/29 07:57:51;;;;;;;15.90;10.60;;;17.70;44.80;;;;;;5064127;28;20439;-65
2022/01/29 08:00:17;;;;;;;17.98;12.00;;;17.30;46.20;;;;;;5073824;28;20112;-65
2022/01/29 08:02:42;;;;;;;19.27;11.75;;;16.80;47.40;;;;;;5058610;28;20112;-65
2022/01/29 08:05:08;;;;;;;18.52;12.43;;;16.40;49.10;;;;;;5057388;28;20029;-64
2022/01/29 08:07:34;;;;;;;17.35;11.40;;;16.10;50.60;;;;;;5064884;28;20514;-66
2022/01/29 08:09:59;;;;;;;18.88;11.63;;;15.80;52.40;;;;;;5067395;28;20032;-66
2022/01/29 08:12:25;;;;;;;20.17;11.77;;;15.60;52.40;;;;;;5063779;28;20068;-66
2022/01/29 08:14:50;;;;;;;17.10;11.02;;;15.40;54.30;;;;;;5060649;28;20025;-66
2022/01/29 08:17:16;;;;;;;17.65;11.30;;;15.30;55.50;;;;;;5057593;28;20372;-66
2022/01/29 08:19:42;;;;;;;19.95;12.10;;;15.30;55.90;;;;;;5066807;28;20110;-65
2022/01/29 08:22:07;;;;;;;12.98;8.65;;;15.20;56.20;;;;;;5068974;28;20161;-65
2022/01/29 08:24:33;;;;;;;12.55;7.85;;;15.30;56.10;;;;;;5073834;28;20111;-64
2022/01/29 08:26:59;;;;;;;10.80;7.75;;;15.60;55.60;;;;;;5073669;28;20486;-64
2022/01/29 08:29:24;;;;;;;12.27;7.22;;;16.00;54.70;;;;;;5069601;28;20052;-64
2022/01/29 08:31:50;;;;;;;10.48;7.15;;;16.30;54.10;;;;;;5067449;28;20021;-65
2022/01/29 08:34:16;;;;;;;9.88;6.65;;;16.60;53.40;;;;;;5073778;28;20116;-65
2022/01/29 08:36:41;;;;;;;8.40;6.15;;;16.90;52.80;;;;;;5073387;28;20472;-65
2022/01/29 08:39:07;;;;;;;8.50;5.75;;;17.10;52.10;;;;;;5044686;28;20029;-64
2022/01/29 08:41:33;;;;;;;7.13;5.72;;;17.30;51.40;;;;;;5053287;28;20078;-65
2022/01/29 08:43:59;;;;;;;8.43;5.30;;;17.50;50.80;;;;;;5053851;28;20461;-66
2022/01/29 08:46:24;;;;;;;7.47;5.32;;;17.70;50.20;;;;;;5052869;28;20033;-66
2022/01/29 08:48:51;;;;;;;5.70;4.90;;;17.90;51.00;;;;;;5049274;28;20131;-66
2022/01/29 08:51:17;;;;;;;6.40;4.75;;;18.00;50.50;;;;;;5073397;28;20039;-66
2022/01/29 08:53:43;;;;;;;5.47;4.68;;;18.20;50.10;;;;;;5055238;28;20033;-66
2022/01/29 08:56:09;;;;;;;6.90;5.18;;;18.30;49.70;;;;;;5069891;28;20021;-66
2022/01/29 08:58:35;;;;;;;6.35;4.78;;;18.40;48.30;;;;;;5068853;28;20020;-66
2022/01/29 09:01:07;;;;;;;6.15;4.55;;;18.50;48.00;;;;;;5073285;28;20032;-66
2022/01/29 09:03:33;;;;;;;5.87;4.30;;;18.60;47.70;;;;;;5073578;28;20024;-66
2022/01/29 09:05:58;;;;;;;5.30;4.53;;;18.70;47.50;;;;;;5072898;28;20024;-66
2022/01/29 09:08:24;;;;;;;5.78;4.70;;;18.80;47.30;;;;;;5073518;28;20035;-66
2022/01/29 09:10:50;;;;;;;5.68;4.60;;;18.90;47.00;;;;;;5073363;28;20471;-66
2022/01/29 09:13:16;;;;;;;5.40;4.45;;;19.00;46.70;;;;;;5038617;28;20365;-66
2022/01/29 09:15:42;;;;;;;6.40;4.75;;;19.00;46.50;;;;;;5073444;28;20027;-66
2022/01/29 09:18:08;;;;;;;5.57;4.50;;;19.10;46.40;;;;;;5055474;28;20115;-66
2022/01/29 09:20:34;;;;;;;5.43;4.18;;;19.10;46.30;;;;;;5075845;28;20055;-66
2022/01/29 09:22:59;;;;;;;5.63;4.47;;;19.20;46.20;;;;;;5077142;28;20060;-66
2022/01/29 09:25:26;;;;;;;4.90;4.40;;;19.20;46.00;;;;;;5059392;28;20033;-66
2022/01/29 09:27:52;;;;;;;4.68;4.20;;;19.30;45.80;;;;;;5077092;28;20484;-67
2022/01/29 09:30:18;;;;;;;5.10;4.32;;;19.30;46.60;;;;;;5058983;28;20068;-66
2022/01/29 09:32:44;;;;;;;5.18;3.92;;;19.30;45.50;;;;;;5077102;28;20039;-66
2022/01/29 09:35:09;;;;;;;5.75;4.30;;;19.40;45.50;;;;;;5076877;28;20146;-66
2022/01/29 09:37:35;;;;;;;5.60;4.20;;;19.40;45.40;;;;;;5077256;28;20035;-66
2022/01/29 09:40:01;;;;;;;5.55;4.40;;;19.40;45.40;;;;;;5076909;28;20107;-66
2022/01/29 09:42:26;;;;;;;5.18;4.30;;;19.40;45.30;;;;;;5076816;28;20380;-66
2022/01/29 09:44:52;;;;;;;5.38;4.55;;;19.50;45.10;;;;;;5074664;28;20029;-66
2022/01/29 09:47:22;;;;;;;5.53;4.32;;;19.50;45.00;;;;;;5073926;28;20127;-66
2022/01/29 09:49:48;;;;;;;5.32;4.63;;;19.50;45.00;;;;;;5066713;28;20505;-66
2022/01/29 09:52:13;;;;;;;6.30;5.43;;;19.50;45.00;;;;;;5069727;28;20020;-65
2022/01/29 09:54:39;;;;;;;5.65;4.85;;;19.50;44.90;;;;;;5060698;28;20044;-66
2022/01/29 09:57:05;;;;;;;5.50;4.47;;;19.50;44.80;;;;;;5076478;28;20735;-66
2022/01/29 09:59:31;;;;;;;5.30;4.78;;;19.60;44.80;;;;;;5075539;28;20490;-66
2022/01/29 10:01:56;;;;;;;5.28;4.18;;;19.60;44.60;;;;;;5072885;28;20025;-66
2022/01/29 10:04:24;;;;;;;6.20;4.72;;;19.60;44.50;;;;;;5075513;28;20807;-66
2022/01/29 10:07:14;;;;;;;5.93;4.43;;;19.60;44.40;;;;;;5064169;28;20033;-66
2022/01/29 10:09:40;;;;;;;6.22;4.47;;;19.70;44.40;;;;;;5064024;28;20020;-66
2022/01/29 10:12:37;;;;;;;6.00;4.75;;;19.60;44.50;;;;;;5063392;28;20390;-66
2022/01/29 10:15:07;;;;;;;5.10;4.47;;;19.70;44.30;;;;;;5055856;28;20039;-66
2022/01/29 10:17:53;;;;;;;7.70;4.90;;;19.60;44.40;;;;;;5056860;28;20049;-66
2022/01/29 10:20:29;;;;;;;12.00;4.93;;;19.70;44.40;;;;;;5073627;28;20039;-66
2022/01/29 10:23:02;;;;;;;6.68;5.40;;;19.70;45.10;;;;;;5064903;28;20040;-66
2022/01/29 10:25:32;;;;;;;6.00;5.10;;;19.70;45.30;;;;;;5065774;28;20067;-65
2022/01/29 10:28:14;;;;;;;6.85;4.95;;;19.70;46.20;;;;;;5060133;28;20025;-66
2022/01/29 10:30:49;;;;;;;6.68;4.63;;;19.70;46.40;;;;;;5072313;28;20029;-65
2022/01/29 10:33:26;;;;;;;5.20;4.68;;;19.70;46.30;;;;;;5072059;28;20100;-65
2022/01/29 10:35:54;;;;;;;6.10;4.50;;;19.70;46.20;;;;;;5068547;28;20073;-66
2022/01/29 10:38:22;;;;;;;6.53;4.70;;;19.80;46.00;;;;;;5075929;28;20016;-66
2022/01/29 10:41:09;;;;;;;5.00;4.50;;;19.80;45.90;;;;;;5064340;28;20056;-66
2022/01/29 10:43:35;;;;;;;5.00;4.20;;;19.80;45.70;;;;;;5056900;28;20033;-66
2022/01/29 10:46:01;;;;;;;5.30;4.13;;;19.80;45.70;;;;;;5049107;28;20033;-66
2022/01/29 10:48:43;;;;;;;4.68;4.15;;;19.80;46.00;;;;;;5067845;28;20391;-67
2022/01/29 10:51:12;;;;;;;4.97;4.50;;;19.90;45.40;;;;;;5073195;28;20024;-67
2022/01/29 10:53:39;;;;;;;4.70;4.20;;;19.90;45.30;;;;;;5072133;28;20128;-67
2022/01/29 10:56:05;;;;;;;8.38;4.78;;;19.90;45.30;;;;;;5068574;28;20037;-66
2022/01/29 10:58:42;;;;;;;6.00;4.20;;;19.90;45.30;;;;;;5074825;28;20027;-66
2022/01/29 11:01:24;;;;;;;4.40;4.00;;;20.00;46.20;;;;;;5056950;28;20040;-67
2022/01/29 11:03:54;;;;;;;4.68;4.20;;;20.00;45.20;;;;;;5065386;28;20033;-66
2022/01/29 11:06:23;;;;;;;4.53;3.97;;;20.00;45.20;;;;;;5075449;28;20064;-67
2022/01/29 11:08:48;;;;;;;4.85;4.18;;;20.00;45.10;;;;;;5075087;28;20020;-67
2022/01/29 11:11:16;;;;;;;5.25;4.30;;;20.00;45.00;;;;;;5075045;28;20036;-67
2022/01/29 11:13:43;;;;;;;5.10;3.88;;;20.00;45.00;;;;;;5075227;28;20013;-66
2022/01/29 11:16:10;;;;;;;4.65;4.05;;;20.00;44.90;;;;;;5066680;28;20102;-67
2022/01/29 11:18:36;;;;;;;5.70;3.92;;;20.00;45.10;;;;;;5054985;28;20279;-67
2022/01/29 11:21:03;;;;;;;4.70;3.95;;;20.00;45.80;;;;;;5061879;28;20166;-67
2022/01/29 11:23:30;;;;;;;4.50;4.10;;;20.10;44.80;;;;;;5074881;28;20016;-67
2022/01/29 11:25:59;;;;;;;5.25;4.38;;;20.10;44.70;;;;;;5074880;28;20040;-67
2022/01/29 11:28:27;;;;;;;4.78;4.05;;;20.10;44.70;;;;;;5074895;28;20020;-66
2022/01/29 11:31:13;;;;;;;5.40;4.25;;;20.10;44.70;;;;;;5075410;28;20044;-67
2022/01/29 11:33:57;;;;;;;4.57;4.18;;;20.10;44.70;;;;;;5074653;28;20020;-66
2022/01/29 11:36:49;;;;;;;4.32;3.72;;;20.10;44.60;;;;;;5073985;28;20048;-67
2022/01/29 11:39:30;;;;;;;4.97;4.30;;;20.10;44.70;;;;;;5063082;28;20041;-66
2022/01/29 11:42:29;;;;;;;6.45;5.05;;;20.10;45.00;;;;;;5060517;28;20056;-66
2022/01/29 11:44:55;;;;;;;8.10;4.50;;;20.10;45.00;;;;;;5030906;28;20491;-66
2022/01/29 11:47:26;;;;;;;7.22;4.43;;;20.00;45.20;;;;;;5074484;28;20033;-66
2022/01/29 11:50:13;;;;;;;10.02;4.60;;;20.10;45.20;;;;;;5069155;28;20112;-67
2022/01/29 11:52:54;;;;;;;7.75;4.65;;;20.10;45.30;;;;;;5073684;28;20535;-66
2022/01/29 11:55:34;;;;;;;8.32;4.10;;;20.20;45.40;;;;;;5054179;28;20514;-66
2022/01/29 11:58:19;;;;;;;7.05;4.65;;;20.20;45.40;;;;;;5046124;28;20444;-66
2022/01/29 12:00:48;;;;;;;6.50;3.92;;;20.30;46.40;;;;;;5054381;28;20036;-66
2022/01/29 12:03:32;;;;;;;5.55;4.10;;;20.40;45.30;;;;;;5054369;28;20108;-65
2022/01/29 12:11:27;;;;;;;7.20;3.50;;;20.60;44.80;;;;;;5053915;28;20040;-66
2022/01/29 12:14:16;;;;;;;5.47;3.42;;;20.60;44.80;;;;;;5044568;28;20026;-66
2022/01/29 12:16:48;;;;;;;6.20;3.38;;;20.70;44.50;;;;;;5046862;28;20029;-67
2022/01/29 12:19:37;;;;;;;6.18;3.40;;;20.70;44.40;;;;;;5047427;28;20104;-66
2022/01/29 12:22:15;;;;;;;4.90;3.13;;;20.80;44.20;;;;;;5038564;28;20503;-66
2022/01/29 12:24:49;;;;;;;5.85;3.10;;;20.80;44.30;;;;;;5053860;28;20036;-66
2022/01/29 12:27:15;;;;;;;3.92;2.92;;;20.80;44.30;;;;;;5054008;28;20029;-66
2022/01/29 12:29:41;;;;;;;4.93;3.17;;;20.90;44.20;;;;;;5053464;28;20037;-66
2022/01/29 12:32:08;;;;;;;4.97;2.88;;;20.90;44.10;;;;;;5053781;28;20025;-67
2022/01/29 12:34:34;;;;;;;4.70;2.72;;;20.90;44.00;;;;;;5041317;28;20030;-66
2022/01/29 12:37:26;;;;;;;5.78;2.78;;;21.00;44.00;;;;;;5015164;28;20388;-66
2022/01/29 12:40:10;;;;;;;5.23;2.93;;;21.00;43.70;;;;;;5015561;28;20049;-66
2022/01/29 12:42:44;;;;;;;4.18;2.58;;;21.00;43.80;;;;;;5050655;28;20043;-66
2022/01/29 12:45:10;;;;;;;2.95;2.50;;;21.00;43.90;;;;;;5045450;28;20025;-66
2022/01/29 12:47:36;;;;;;;4.13;2.60;;;21.00;43.80;;;;;;5049582;28;20387;-66
2022/01/29 12:50:03;;;;;;;2.97;2.45;;;21.00;43.70;;;;;;5045886;28;20034;-66
2022/01/29 12:52:30;;;;;;;3.63;2.75;;;21.10;43.70;;;;;;5037291;28;20029;-66
2022/01/29 12:55:02;;;;;;;3.10;2.60;;;21.10;43.70;;;;;;5070800;28;20510;-66
2022/01/29 12:57:42;;;;;;;5.70;2.75;;;21.10;43.60;;;;;;5063745;28;20025;-66
2022/01/29 13:00:15;;;;;;;3.95;2.40;;;21.10;43.60;;;;;;5072297;28;20058;-66
2022/01/29 13:02:41;;;;;;;;;;;21.10;43.60;;;;;;5069835;28;20392;-66
2022/01/29 13:05:07;;;;;;;4.18;2.30;;;21.10;43.60;;;;;;5052297;28;19909;-66
2022/01/29 13:07:35;;;;;;;5.28;2.50;;;21.10;43.90;;;;;;5056216;28;20033;-66